sensor_id;sensor_type;location;lat;lon;timestamp;P1;durP1;ratioP1;P2;durP2;ratioP2
28483;SDS011;15704;48.834;8.736;2023-10-09T00:01:04;26.10;;;3.90;;
28483;SDS011;15704;48.834;8.736;2023-10-09T00:03:40;29.90;;;4.82;;
28483;SDS011;15704;48.834;8.736;2023-10-09T00:06:07;25.40;;;5.03;;
28483;SDS011;15704;48.834;8.736;2023-10-09T00:08:36;15.18;;;4.40;;
28483;SDS011;15704;48.834;8.736;2023-10-09T00:11:05;15.73;;;3.72;;
28483;SDS011;15704;48.834;8.736;2023-10-09T00:13:45;27.77;;;5.03;;
28483;SDS011;15704;48.834;8.736;2023-10-09T00:16:16;23.17;;;4.60;;
28483;SDS011;15704;48.834;8.736;2023-10-09T00:18:50;42.25;;;6.70;;
28483;SDS011;15704;48.834;8.736;2023-10-09T00:21:17;21.38;;;4.72;;
28483;SDS011;15704;48.834;8.736;2023-10-09T00:23:48;19.17;;;4.00;;
28483;SDS011;15704;48.834;8.736;2023-10-09T00:26:20;29.92;;;4.13;;
28483;SDS011;15704;48.834;8.736;2023-10-09T00:28:47;18.88;;;3.92;;
28483;SDS011;15704;48.834;8.736;2023-10-09T00:31:14;16.33;;;3.90;;
28483;SDS011;15704;48.834;8.736;2023-10-09T00:33:52;20.73;;;4.43;;
28483;SDS011;15704;48.834;8.736;2023-10-09T00:36:21;25.05;;;5.10;;
28483;SDS011;15704;48.834;8.736;2023-10-09T00:38:54;22.88;;;3.55;;
28483;SDS011;15704;48.834;8.736;2023-10-09T00:41:21;24.23;;;4.90;;
28483;SDS011;15704;48.834;8.736;2023-10-09T00:43:51;20.55;;;4.88;;
28483;SDS011;15704;48.834;8.736;2023-10-09T00:46:20;16.13;;;4.47;;
28483;SDS011;15704;48.834;8.736;2023-10-09T00:48:48;28.70;;;4.30;;
28483;SDS011;15704;48.834;8.736;2023-10-09T00:51:18;19.23;;;4.35;;
28483;SDS011;15704;48.834;8.736;2023-10-09T00:53:49;15.65;;;3.55;;
28483;SDS011;15704;48.834;8.736;2023-10-09T00:56:34;11.95;;;3.90;;
28483;SDS011;15704;48.834;8.736;2023-10-09T00:59:06;30.23;;;4.65;;
28483;SDS011;15704;48.834;8.736;2023-10-09T01:01:34;23.35;;;4.72;;
28483;SDS011;15704;48.834;8.736;2023-10-09T01:04:07;21.30;;;4.55;;
28483;SDS011;15704;48.834;8.736;2023-10-09T01:06:38;22.15;;;4.53;;
28483;SDS011;15704;48.834;8.736;2023-10-09T01:09:14;17.20;;;4.15;;
28483;SDS011;15704;48.834;8.736;2023-10-09T01:14:15;24.65;;;4.53;;
28483;SDS011;15704;48.834;8.736;2023-10-09T01:16:42;20.88;;;4.20;;
28483;SDS011;15704;48.834;8.736;2023-10-09T01:19:10;18.27;;;4.18;;
28483;SDS011;15704;48.834;8.736;2023-10-09T01:21:51;31.10;;;5.90;;
28483;SDS011;15704;48.834;8.736;2023-10-09T01:24:18;31.63;;;5.88;;
28483;SDS011;15704;48.834;8.736;2023-10-09T01:26:46;26.30;;;3.65;;
28483;SDS011;15704;48.834;8.736;2023-10-09T01:29:16;27.17;;;4.40;;
28483;SDS011;15704;48.834;8.736;2023-10-09T01:31:49;27.58;;;4.50;;
28483;SDS011;15704;48.834;8.736;2023-10-09T01:34:18;30.30;;;4.75;;
28483;SDS011;15704;48.834;8.736;2023-10-09T01:36:50;15.48;;;3.35;;
28483;SDS011;15704;48.834;8.736;2023-10-09T01:42:06;25.38;;;3.47;;
28483;SDS011;15704;48.834;8.736;2023-10-09T01:44:33;25.25;;;5.75;;
28483;SDS011;15704;48.834;8.736;2023-10-09T01:47:09;18.25;;;4.35;;
28483;SDS011;15704;48.834;8.736;2023-10-09T01:49:40;22.95;;;5.25;;
28483;SDS011;15704;48.834;8.736;2023-10-09T01:52:10;23.27;;;4.30;;
28483;SDS011;15704;48.834;8.736;2023-10-09T01:54:42;16.50;;;4.32;;
28483;SDS011;15704;48.834;8.736;2023-10-09T01:57:15;38.35;;;5.05;;
28483;SDS011;15704;48.834;8.736;2023-10-09T01:59:49;25.33;;;5.30;;
28483;SDS011;15704;48.834;8.736;2023-10-09T02:02:19;29.60;;;3.95;;
28483;SDS011;15704;48.834;8.736;2023-10-09T02:05:02;25.40;;;3.70;;
28483;SDS011;15704;48.834;8.736;2023-10-09T02:07:33;19.40;;;4.53;;
28483;SDS011;15704;48.834;8.736;2023-10-09T02:10:08;15.80;;;4.55;;
28483;SDS011;15704;48.834;8.736;2023-10-09T02:12:51;26.17;;;4.03;;
28483;SDS011;15704;48.834;8.736;2023-10-09T02:15:45;20.42;;;4.47;;
28483;SDS011;15704;48.834;8.736;2023-10-09T02:18:19;15.93;;;4.15;;
28483;SDS011;15704;48.834;8.736;2023-10-09T02:20:53;32.30;;;4.80;;
28483;SDS011;15704;48.834;8.736;2023-10-09T02:23:32;20.10;;;4.25;;
28483;SDS011;15704;48.834;8.736;2023-10-09T02:26:26;18.38;;;4.10;;
28483;SDS011;15704;48.834;8.736;2023-10-09T02:29:06;20.02;;;4.30;;
28483;SDS011;15704;48.834;8.736;2023-10-09T02:31:46;28.30;;;4.97;;
28483;SDS011;15704;48.834;8.736;2023-10-09T02:34:17;35.80;;;5.28;;
28483;SDS011;15704;48.834;8.736;2023-10-09T02:36:54;26.85;;;4.68;;
28483;SDS011;15704;48.834;8.736;2023-10-09T02:39:24;25.20;;;5.20;;
28483;SDS011;15704;48.834;8.736;2023-10-09T02:41:52;29.17;;;4.68;;
28483;SDS011;15704;48.834;8.736;2023-10-09T02:44:26;29.50;;;4.57;;
28483;SDS011;15704;48.834;8.736;2023-10-09T02:47:01;20.77;;;4.50;;
28483;SDS011;15704;48.834;8.736;2023-10-09T02:49:31;31.50;;;6.28;;
28483;SDS011;15704;48.834;8.736;2023-10-09T02:52:00;27.20;;;4.78;;
28483;SDS011;15704;48.834;8.736;2023-10-09T02:54:33;27.80;;;4.43;;
28483;SDS011;15704;48.834;8.736;2023-10-09T02:57:07;22.33;;;5.28;;
28483;SDS011;15704;48.834;8.736;2023-10-09T02:59:34;25.35;;;4.50;;
28483;SDS011;15704;48.834;8.736;2023-10-09T03:02:05;33.72;;;5.72;;
28483;SDS011;15704;48.834;8.736;2023-10-09T03:04:31;25.80;;;4.63;;
28483;SDS011;15704;48.834;8.736;2023-10-09T03:06:59;26.88;;;5.10;;
28483;SDS011;15704;48.834;8.736;2023-10-09T03:09:26;26.60;;;4.95;;
28483;SDS011;15704;48.834;8.736;2023-10-09T03:11:56;33.22;;;6.07;;
28483;SDS011;15704;48.834;8.736;2023-10-09T03:14:30;24.92;;;5.50;;
28483;SDS011;15704;48.834;8.736;2023-10-09T03:16:58;36.67;;;5.72;;
28483;SDS011;15704;48.834;8.736;2023-10-09T03:19:26;38.78;;;6.63;;
28483;SDS011;15704;48.834;8.736;2023-10-09T03:21:57;42.58;;;5.10;;
28483;SDS011;15704;48.834;8.736;2023-10-09T03:24:25;18.90;;;5.22;;
28483;SDS011;15704;48.834;8.736;2023-10-09T03:26:54;34.00;;;5.38;;
28483;SDS011;15704;48.834;8.736;2023-10-09T03:29:22;24.77;;;4.82;;
28483;SDS011;15704;48.834;8.736;2023-10-09T03:31:50;19.95;;;4.80;;
28483;SDS011;15704;48.834;8.736;2023-10-09T03:34:17;34.42;;;6.00;;
28483;SDS011;15704;48.834;8.736;2023-10-09T03:36:47;42.92;;;6.20;;
28483;SDS011;15704;48.834;8.736;2023-10-09T03:39:14;22.73;;;4.00;;
28483;SDS011;15704;48.834;8.736;2023-10-09T03:41:55;34.80;;;4.68;;
28483;SDS011;15704;48.834;8.736;2023-10-09T03:44:25;29.00;;;6.32;;
28483;SDS011;15704;48.834;8.736;2023-10-09T03:46:55;39.05;;;5.97;;
28483;SDS011;15704;48.834;8.736;2023-10-09T03:49:22;27.67;;;5.93;;
28483;SDS011;15704;48.834;8.736;2023-10-09T03:51:50;17.02;;;4.82;;
28483;SDS011;15704;48.834;8.736;2023-10-09T03:54:17;29.88;;;5.28;;
28483;SDS011;15704;48.834;8.736;2023-10-09T03:56:47;23.13;;;5.68;;
28483;SDS011;15704;48.834;8.736;2023-10-09T03:59:17;36.20;;;6.05;;
28483;SDS011;15704;48.834;8.736;2023-10-09T04:01:49;28.35;;;5.22;;
28483;SDS011;15704;48.834;8.736;2023-10-09T04:04:19;29.65;;;5.40;;
28483;SDS011;15704;48.834;8.736;2023-10-09T04:06:49;26.55;;;4.97;;
28483;SDS011;15704;48.834;8.736;2023-10-09T04:09:19;26.40;;;5.95;;
28483;SDS011;15704;48.834;8.736;2023-10-09T04:11:51;32.17;;;5.40;;
28483;SDS011;15704;48.834;8.736;2023-10-09T04:14:37;25.75;;;4.68;;
28483;SDS011;15704;48.834;8.736;2023-10-09T04:17:16;23.50;;;5.40;;
28483;SDS011;15704;48.834;8.736;2023-10-09T04:19:49;39.10;;;6.10;;
28483;SDS011;15704;48.834;8.736;2023-10-09T04:22:40;26.50;;;4.93;;
28483;SDS011;15704;48.834;8.736;2023-10-09T04:25:36;35.67;;;5.95;;
28483;SDS011;15704;48.834;8.736;2023-10-09T04:28:11;47.25;;;5.43;;
28483;SDS011;15704;48.834;8.736;2023-10-09T04:30:46;23.45;;;4.82;;
28483;SDS011;15704;48.834;8.736;2023-10-09T04:33:20;36.28;;;4.97;;
28483;SDS011;15704;48.834;8.736;2023-10-09T04:36:03;31.98;;;4.80;;
28483;SDS011;15704;48.834;8.736;2023-10-09T04:38:42;29.10;;;5.28;;
28483;SDS011;15704;48.834;8.736;2023-10-09T04:41:22;32.38;;;5.53;;
28483;SDS011;15704;48.834;8.736;2023-10-09T04:43:54;23.60;;;5.18;;
28483;SDS011;15704;48.834;8.736;2023-10-09T04:46:46;34.03;;;4.55;;
28483;SDS011;15704;48.834;8.736;2023-10-09T04:49:45;25.33;;;4.43;;
28483;SDS011;15704;48.834;8.736;2023-10-09T04:52:15;31.02;;;5.03;;
28483;SDS011;15704;48.834;8.736;2023-10-09T04:54:51;20.65;;;4.30;;
28483;SDS011;15704;48.834;8.736;2023-10-09T05:00:10;34.38;;;4.50;;
28483;SDS011;15704;48.834;8.736;2023-10-09T05:02:55;24.02;;;4.22;;
28483;SDS011;15704;48.834;8.736;2023-10-09T05:05:24;17.27;;;4.03;;
28483;SDS011;15704;48.834;8.736;2023-10-09T05:08:11;29.88;;;4.30;;
28483;SDS011;15704;48.834;8.736;2023-10-09T05:10:45;29.98;;;4.38;;
28483;SDS011;15704;48.834;8.736;2023-10-09T05:13:44;17.02;;;3.63;;
28483;SDS011;15704;48.834;8.736;2023-10-09T05:16:23;16.73;;;3.25;;
28483;SDS011;15704;48.834;8.736;2023-10-09T05:18:56;28.00;;;6.20;;
28483;SDS011;15704;48.834;8.736;2023-10-09T05:21:30;16.85;;;4.75;;
28483;SDS011;15704;48.834;8.736;2023-10-09T05:23:59;30.90;;;4.32;;
28483;SDS011;15704;48.834;8.736;2023-10-09T05:26:43;20.08;;;3.85;;
28483;SDS011;15704;48.834;8.736;2023-10-09T05:29:21;34.65;;;5.70;;
28483;SDS011;15704;48.834;8.736;2023-10-09T05:31:55;24.90;;;5.65;;
28483;SDS011;15704;48.834;8.736;2023-10-09T05:34:23;18.67;;;4.25;;
28483;SDS011;15704;48.834;8.736;2023-10-09T05:37:03;19.50;;;3.72;;
28483;SDS011;15704;48.834;8.736;2023-10-09T05:40:01;19.98;;;3.88;;
28483;SDS011;15704;48.834;8.736;2023-10-09T05:42:30;17.95;;;3.55;;
28483;SDS011;15704;48.834;8.736;2023-10-09T05:45:04;33.67;;;5.05;;
28483;SDS011;15704;48.834;8.736;2023-10-09T05:47:48;23.00;;;4.03;;
28483;SDS011;15704;48.834;8.736;2023-10-09T05:50:16;24.83;;;4.63;;
28483;SDS011;15704;48.834;8.736;2023-10-09T05:52:43;31.17;;;4.38;;
28483;SDS011;15704;48.834;8.736;2023-10-09T05:55:22;22.15;;;3.00;;
28483;SDS011;15704;48.834;8.736;2023-10-09T05:57:50;29.20;;;3.97;;
28483;SDS011;15704;48.834;8.736;2023-10-09T06:00:53;27.25;;;4.45;;
28483;SDS011;15704;48.834;8.736;2023-10-09T06:03:38;48.67;;;5.05;;
28483;SDS011;15704;48.834;8.736;2023-10-09T06:06:15;26.63;;;4.90;;
28483;SDS011;15704;48.834;8.736;2023-10-09T06:09:02;41.00;;;5.70;;
28483;SDS011;15704;48.834;8.736;2023-10-09T06:11:56;38.30;;;3.88;;
28483;SDS011;15704;48.834;8.736;2023-10-09T06:14:43;34.83;;;4.65;;
28483;SDS011;15704;48.834;8.736;2023-10-09T06:17:15;26.17;;;4.78;;
28483;SDS011;15704;48.834;8.736;2023-10-09T06:19:57;30.95;;;4.50;;
28483;SDS011;15704;48.834;8.736;2023-10-09T06:22:46;26.92;;;3.55;;
28483;SDS011;15704;48.834;8.736;2023-10-09T06:25:23;24.73;;;4.43;;
28483;SDS011;15704;48.834;8.736;2023-10-09T06:27:58;25.63;;;4.57;;
28483;SDS011;15704;48.834;8.736;2023-10-09T06:30:25;20.90;;;5.35;;
28483;SDS011;15704;48.834;8.736;2023-10-09T06:32:54;34.35;;;4.35;;
28483;SDS011;15704;48.834;8.736;2023-10-09T06:35:53;34.03;;;5.70;;
28483;SDS011;15704;48.834;8.736;2023-10-09T06:38:20;23.00;;;3.60;;
28483;SDS011;15704;48.834;8.736;2023-10-09T06:40:59;27.13;;;4.13;;
28483;SDS011;15704;48.834;8.736;2023-10-09T06:43:58;35.22;;;4.82;;
28483;SDS011;15704;48.834;8.736;2023-10-09T06:46:33;28.63;;;5.25;;
28483;SDS011;15704;48.834;8.736;2023-10-09T06:49:11;26.13;;;4.72;;
28483;SDS011;15704;48.834;8.736;2023-10-09T06:51:59;29.70;;;4.78;;
28483;SDS011;15704;48.834;8.736;2023-10-09T06:54:42;33.38;;;5.20;;
28483;SDS011;15704;48.834;8.736;2023-10-09T06:57:16;32.33;;;4.57;;
28483;SDS011;15704;48.834;8.736;2023-10-09T07:00:01;24.45;;;4.40;;
28483;SDS011;15704;48.834;8.736;2023-10-09T07:02:57;27.85;;;4.95;;
28483;SDS011;15704;48.834;8.736;2023-10-09T07:05:24;26.00;;;5.28;;
28483;SDS011;15704;48.834;8.736;2023-10-09T07:08:03;33.78;;;4.63;;
28483;SDS011;15704;48.834;8.736;2023-10-09T07:10:50;42.70;;;6.35;;
28483;SDS011;15704;48.834;8.736;2023-10-09T07:13:37;29.65;;;5.18;;
28483;SDS011;15704;48.834;8.736;2023-10-09T07:16:03;30.67;;;5.10;;
28483;SDS011;15704;48.834;8.736;2023-10-09T07:18:49;41.50;;;4.78;;
28483;SDS011;15704;48.834;8.736;2023-10-09T07:21:16;38.58;;;5.47;;
28483;SDS011;15704;48.834;8.736;2023-10-09T07:23:44;37.65;;;5.63;;
28483;SDS011;15704;48.834;8.736;2023-10-09T07:26:15;27.47;;;4.83;;
28483;SDS011;15704;48.834;8.736;2023-10-09T07:28:49;22.38;;;4.65;;
28483;SDS011;15704;48.834;8.736;2023-10-09T07:31:17;32.40;;;5.80;;
28483;SDS011;15704;48.834;8.736;2023-10-09T07:33:52;47.78;;;5.07;;
28483;SDS011;15704;48.834;8.736;2023-10-09T07:36:26;40.65;;;5.78;;
28483;SDS011;15704;48.834;8.736;2023-10-09T07:39:01;23.13;;;4.95;;
28483;SDS011;15704;48.834;8.736;2023-10-09T07:41:32;34.05;;;4.80;;
28483;SDS011;15704;48.834;8.736;2023-10-09T07:43:58;43.50;;;5.35;;
28483;SDS011;15704;48.834;8.736;2023-10-09T07:46:45;35.50;;;6.05;;
28483;SDS011;15704;48.834;8.736;2023-10-09T07:49:40;33.72;;;5.35;;
28483;SDS011;15704;48.834;8.736;2023-10-09T07:52:08;31.77;;;4.57;;
28483;SDS011;15704;48.834;8.736;2023-10-09T07:54:35;21.60;;;3.88;;
28483;SDS011;15704;48.834;8.736;2023-10-09T07:57:02;30.88;;;5.40;;
28483;SDS011;15704;48.834;8.736;2023-10-09T07:59:42;26.20;;;4.32;;
28483;SDS011;15704;48.834;8.736;2023-10-09T08:02:21;38.78;;;5.20;;
28483;SDS011;15704;48.834;8.736;2023-10-09T08:04:58;25.52;;;4.28;;
28483;SDS011;15704;48.834;8.736;2023-10-09T08:07:46;36.63;;;5.43;;
28483;SDS011;15704;48.834;8.736;2023-10-09T08:10:44;52.90;;;4.93;;
28483;SDS011;15704;48.834;8.736;2023-10-09T08:13:29;22.00;;;4.55;;
28483;SDS011;15704;48.834;8.736;2023-10-09T08:16:15;24.30;;;4.70;;
28483;SDS011;15704;48.834;8.736;2023-10-09T08:18:53;23.70;;;4.07;;
28483;SDS011;15704;48.834;8.736;2023-10-09T08:21:24;24.25;;;3.88;;
28483;SDS011;15704;48.834;8.736;2023-10-09T08:24:08;36.60;;;4.60;;
28483;SDS011;15704;48.834;8.736;2023-10-09T08:26:55;29.00;;;4.72;;
28483;SDS011;15704;48.834;8.736;2023-10-09T08:29:42;26.05;;;4.38;;
28483;SDS011;15704;48.834;8.736;2023-10-09T08:32:13;29.40;;;3.93;;
28483;SDS011;15704;48.834;8.736;2023-10-09T08:35:07;29.90;;;4.63;;
28483;SDS011;15704;48.834;8.736;2023-10-09T08:37:58;23.13;;;4.25;;
28483;SDS011;15704;48.834;8.736;2023-10-09T08:40:35;27.95;;;4.13;;
28483;SDS011;15704;48.834;8.736;2023-10-09T08:43:08;20.30;;;3.83;;
28483;SDS011;15704;48.834;8.736;2023-10-09T08:45:40;36.15;;;5.40;;
28483;SDS011;15704;48.834;8.736;2023-10-09T08:48:11;17.80;;;3.22;;
28483;SDS011;15704;48.834;8.736;2023-10-09T08:50:42;24.48;;;4.25;;
28483;SDS011;15704;48.834;8.736;2023-10-09T08:53:10;32.85;;;5.70;;
28483;SDS011;15704;48.834;8.736;2023-10-09T08:55:40;20.52;;;3.70;;
28483;SDS011;15704;48.834;8.736;2023-10-09T08:58:08;20.35;;;4.80;;
28483;SDS011;15704;48.834;8.736;2023-10-09T09:00:51;27.48;;;3.83;;
28483;SDS011;15704;48.834;8.736;2023-10-09T09:03:19;38.33;;;5.88;;
28483;SDS011;15704;48.834;8.736;2023-10-09T09:05:58;27.98;;;3.90;;
28483;SDS011;15704;48.834;8.736;2023-10-09T09:08:31;24.10;;;3.60;;
28483;SDS011;15704;48.834;8.736;2023-10-09T09:11:03;25.88;;;4.03;;
28483;SDS011;15704;48.834;8.736;2023-10-09T09:16:45;35.33;;;5.18;;
28483;SDS011;15704;48.834;8.736;2023-10-09T09:19:15;33.00;;;4.68;;
28483;SDS011;15704;48.834;8.736;2023-10-09T09:21:51;26.65;;;3.85;;
28483;SDS011;15704;48.834;8.736;2023-10-09T09:24:25;35.33;;;4.40;;
28483;SDS011;15704;48.834;8.736;2023-10-09T09:26:53;26.70;;;3.92;;
28483;SDS011;15704;48.834;8.736;2023-10-09T09:32:10;32.13;;;4.53;;
28483;SDS011;15704;48.834;8.736;2023-10-09T09:34:45;20.95;;;4.07;;
28483;SDS011;15704;48.834;8.736;2023-10-09T09:37:19;21.75;;;4.00;;
28483;SDS011;15704;48.834;8.736;2023-10-09T09:39:47;31.95;;;4.68;;
28483;SDS011;15704;48.834;8.736;2023-10-09T09:42:21;29.00;;;4.63;;
28483;SDS011;15704;48.834;8.736;2023-10-09T09:44:52;21.95;;;3.30;;
28483;SDS011;15704;48.834;8.736;2023-10-09T09:47:19;16.75;;;3.47;;
28483;SDS011;15704;48.834;8.736;2023-10-09T09:49:54;19.98;;;3.78;;
28483;SDS011;15704;48.834;8.736;2023-10-09T09:52:31;20.55;;;3.55;;
28483;SDS011;15704;48.834;8.736;2023-10-09T09:55:07;19.95;;;3.42;;
28483;SDS011;15704;48.834;8.736;2023-10-09T09:57:46;17.23;;;4.07;;
28483;SDS011;15704;48.834;8.736;2023-10-09T10:00:22;23.98;;;4.28;;
28483;SDS011;15704;48.834;8.736;2023-10-09T10:03:10;20.65;;;2.92;;
28483;SDS011;15704;48.834;8.736;2023-10-09T10:05:40;24.65;;;3.90;;
28483;SDS011;15704;48.834;8.736;2023-10-09T10:08:16;20.85;;;3.50;;
28483;SDS011;15704;48.834;8.736;2023-10-09T10:10:48;19.60;;;4.00;;
28483;SDS011;15704;48.834;8.736;2023-10-09T10:16:10;28.45;;;4.35;;
28483;SDS011;15704;48.834;8.736;2023-10-09T10:21:27;12.82;;;2.97;;
28483;SDS011;15704;48.834;8.736;2023-10-09T10:26:38;14.18;;;4.15;;
28483;SDS011;15704;48.834;8.736;2023-10-09T10:29:40;16.83;;;3.50;;
28483;SDS011;15704;48.834;8.736;2023-10-09T10:32:01;19.92;;;3.70;;
28483;SDS011;15704;48.834;8.736;2023-10-09T10:34:51;17.70;;;3.72;;
28483;SDS011;15704;48.834;8.736;2023-10-09T10:40:10;21.02;;;4.20;;
28483;SDS011;15704;48.834;8.736;2023-10-09T10:43:00;20.73;;;4.43;;
28483;SDS011;15704;48.834;8.736;2023-10-09T10:45:39;22.15;;;4.18;;
28483;SDS011;15704;48.834;8.736;2023-10-09T10:48:11;17.55;;;3.42;;
28483;SDS011;15704;48.834;8.736;2023-10-09T10:50:55;12.27;;;3.08;;
28483;SDS011;15704;48.834;8.736;2023-10-09T10:53:23;14.95;;;3.00;;
28483;SDS011;15704;48.834;8.736;2023-10-09T10:58:53;16.80;;;4.07;;
28483;SDS011;15704;48.834;8.736;2023-10-09T11:01:41;14.60;;;2.90;;
28483;SDS011;15704;48.834;8.736;2023-10-09T11:04:26;22.13;;;3.83;;
28483;SDS011;15704;48.834;8.736;2023-10-09T11:06:54;14.57;;;3.25;;
28483;SDS011;15704;48.834;8.736;2023-10-09T11:09:29;20.80;;;4.07;;
28483;SDS011;15704;48.834;8.736;2023-10-09T11:12:26;14.48;;;4.03;;
28483;SDS011;15704;48.834;8.736;2023-10-09T11:15:11;15.80;;;4.95;;
28483;SDS011;15704;48.834;8.736;2023-10-09T11:18:01;14.95;;;4.93;;
28483;SDS011;15704;48.834;8.736;2023-10-09T11:20:34;22.60;;;4.32;;
28483;SDS011;15704;48.834;8.736;2023-10-09T11:23:05;16.60;;;4.68;;
28483;SDS011;15704;48.834;8.736;2023-10-09T11:25:39;10.75;;;3.88;;
28483;SDS011;15704;48.834;8.736;2023-10-09T11:28:26;11.10;;;4.10;;
28483;SDS011;15704;48.834;8.736;2023-10-09T11:31:09;15.65;;;4.38;;
28483;SDS011;15704;48.834;8.736;2023-10-09T11:33:47;12.63;;;3.95;;
28483;SDS011;15704;48.834;8.736;2023-10-09T11:36:15;16.15;;;3.83;;
28483;SDS011;15704;48.834;8.736;2023-10-09T11:38:42;12.55;;;3.97;;
28483;SDS011;15704;48.834;8.736;2023-10-09T11:41:15;15.32;;;4.72;;
28483;SDS011;15704;48.834;8.736;2023-10-09T11:43:50;19.23;;;5.38;;
28483;SDS011;15704;48.834;8.736;2023-10-09T11:46:20;20.67;;;4.65;;
28483;SDS011;15704;48.834;8.736;2023-10-09T11:49:04;17.13;;;5.47;;
28483;SDS011;15704;48.834;8.736;2023-10-09T11:51:47;16.88;;;4.70;;
28483;SDS011;15704;48.834;8.736;2023-10-09T11:54:34;13.20;;;4.50;;
28483;SDS011;15704;48.834;8.736;2023-10-09T11:57:04;13.85;;;4.70;;
28483;SDS011;15704;48.834;8.736;2023-10-09T11:59:31;22.70;;;5.65;;
28483;SDS011;15704;48.834;8.736;2023-10-09T12:02:04;13.88;;;5.80;;
28483;SDS011;15704;48.834;8.736;2023-10-09T12:04:33;20.30;;;6.07;;
28483;SDS011;15704;48.834;8.736;2023-10-09T12:07:00;19.67;;;5.45;;
28483;SDS011;15704;48.834;8.736;2023-10-09T12:09:38;15.20;;;4.22;;
28483;SDS011;15704;48.834;8.736;2023-10-09T12:12:05;9.30;;;4.00;;
28483;SDS011;15704;48.834;8.736;2023-10-09T12:14:35;16.80;;;4.85;;
28483;SDS011;15704;48.834;8.736;2023-10-09T12:17:04;15.02;;;4.57;;
28483;SDS011;15704;48.834;8.736;2023-10-09T12:19:32;12.23;;;4.97;;
28483;SDS011;15704;48.834;8.736;2023-10-09T12:22:00;19.85;;;4.65;;
28483;SDS011;15704;48.834;8.736;2023-10-09T12:24:30;17.95;;;5.20;;
28483;SDS011;15704;48.834;8.736;2023-10-09T12:27:00;25.30;;;5.65;;
28483;SDS011;15704;48.834;8.736;2023-10-09T12:29:27;17.83;;;5.00;;
28483;SDS011;15704;48.834;8.736;2023-10-09T12:31:56;14.32;;;4.90;;
28483;SDS011;15704;48.834;8.736;2023-10-09T12:34:27;10.20;;;4.30;;
28483;SDS011;15704;48.834;8.736;2023-10-09T12:36:55;17.75;;;5.57;;
28483;SDS011;15704;48.834;8.736;2023-10-09T12:39:22;23.92;;;7.20;;
28483;SDS011;15704;48.834;8.736;2023-10-09T12:41:49;17.77;;;6.70;;
28483;SDS011;15704;48.834;8.736;2023-10-09T12:44:20;19.35;;;7.43;;
28483;SDS011;15704;48.834;8.736;2023-10-09T12:46:47;19.83;;;8.55;;
28483;SDS011;15704;48.834;8.736;2023-10-09T12:49:20;31.10;;;9.65;;
28483;SDS011;15704;48.834;8.736;2023-10-09T12:54:18;13.80;;;5.22;;
28483;SDS011;15704;48.834;8.736;2023-10-09T12:56:46;18.90;;;5.18;;
28483;SDS011;15704;48.834;8.736;2023-10-09T12:59:16;13.02;;;5.10;;
28483;SDS011;15704;48.834;8.736;2023-10-09T13:01:44;19.02;;;7.07;;
28483;SDS011;15704;48.834;8.736;2023-10-09T13:04:14;18.38;;;6.50;;
28483;SDS011;15704;48.834;8.736;2023-10-09T13:06:43;22.65;;;7.07;;
28483;SDS011;15704;48.834;8.736;2023-10-09T13:09:10;11.52;;;5.50;;
28483;SDS011;15704;48.834;8.736;2023-10-09T13:11:40;16.60;;;6.13;;
28483;SDS011;15704;48.834;8.736;2023-10-09T13:14:07;21.17;;;6.40;;
28483;SDS011;15704;48.834;8.736;2023-10-09T13:16:43;18.25;;;6.05;;
28483;SDS011;15704;48.834;8.736;2023-10-09T13:19:10;17.48;;;6.53;;
28483;SDS011;15704;48.834;8.736;2023-10-09T13:21:37;24.42;;;6.22;;
28483;SDS011;15704;48.834;8.736;2023-10-09T13:24:08;24.97;;;7.33;;
28483;SDS011;15704;48.834;8.736;2023-10-09T13:29:24;17.30;;;7.70;;
28483;SDS011;15704;48.834;8.736;2023-10-09T13:31:51;16.75;;;7.07;;
28483;SDS011;15704;48.834;8.736;2023-10-09T13:34:25;18.98;;;7.13;;
28483;SDS011;15704;48.834;8.736;2023-10-09T13:36:54;21.40;;;6.82;;
28483;SDS011;15704;48.834;8.736;2023-10-09T13:39:30;21.80;;;6.53;;
28483;SDS011;15704;48.834;8.736;2023-10-09T13:42:03;21.52;;;6.50;;
28483;SDS011;15704;48.834;8.736;2023-10-09T13:44:33;16.27;;;6.45;;
28483;SDS011;15704;48.834;8.736;2023-10-09T13:47:03;14.98;;;6.38;;
28483;SDS011;15704;48.834;8.736;2023-10-09T13:49:35;22.70;;;6.25;;
28483;SDS011;15704;48.834;8.736;2023-10-09T13:52:09;23.45;;;6.00;;
28483;SDS011;15704;48.834;8.736;2023-10-09T13:54:35;15.93;;;5.47;;
28483;SDS011;15704;48.834;8.736;2023-10-09T13:57:03;17.98;;;5.97;;
28483;SDS011;15704;48.834;8.736;2023-10-09T13:59:31;16.92;;;6.38;;
28483;SDS011;15704;48.834;8.736;2023-10-09T14:02:01;17.63;;;5.55;;
28483;SDS011;15704;48.834;8.736;2023-10-09T14:04:35;15.55;;;6.28;;
28483;SDS011;15704;48.834;8.736;2023-10-09T14:07:02;25.27;;;6.22;;
28483;SDS011;15704;48.834;8.736;2023-10-09T14:09:32;18.98;;;6.35;;
28483;SDS011;15704;48.834;8.736;2023-10-09T14:12:19;25.77;;;6.32;;
28483;SDS011;15704;48.834;8.736;2023-10-09T14:14:51;18.20;;;7.05;;
28483;SDS011;15704;48.834;8.736;2023-10-09T14:17:21;24.30;;;8.57;;
28483;SDS011;15704;48.834;8.736;2023-10-09T14:19:53;20.80;;;7.95;;
28483;SDS011;15704;48.834;8.736;2023-10-09T14:22:22;23.45;;;6.22;;
28483;SDS011;15704;48.834;8.736;2023-10-09T14:27:26;20.33;;;6.38;;
28483;SDS011;15704;48.834;8.736;2023-10-09T14:29:56;16.27;;;5.30;;
28483;SDS011;15704;48.834;8.736;2023-10-09T14:32:26;16.52;;;6.07;;
28483;SDS011;15704;48.834;8.736;2023-10-09T14:35:00;17.70;;;6.38;;
28483;SDS011;15704;48.834;8.736;2023-10-09T14:37:28;15.73;;;6.03;;
28483;SDS011;15704;48.834;8.736;2023-10-09T14:39:55;18.42;;;5.72;;
28483;SDS011;15704;48.834;8.736;2023-10-09T14:42:23;19.05;;;5.88;;
28483;SDS011;15704;48.834;8.736;2023-10-09T14:44:54;17.27;;;5.47;;
28483;SDS011;15704;48.834;8.736;2023-10-09T14:47:22;17.08;;;5.85;;
28483;SDS011;15704;48.834;8.736;2023-10-09T14:49:49;23.25;;;6.88;;
28483;SDS011;15704;48.834;8.736;2023-10-09T14:52:16;17.80;;;6.03;;
28483;SDS011;15704;48.834;8.736;2023-10-09T14:54:43;20.65;;;6.07;;
28483;SDS011;15704;48.834;8.736;2023-10-09T14:57:13;14.27;;;5.47;;
28483;SDS011;15704;48.834;8.736;2023-10-09T14:59:40;20.67;;;6.32;;
28483;SDS011;15704;48.834;8.736;2023-10-09T15:02:09;16.35;;;5.65;;
28483;SDS011;15704;48.834;8.736;2023-10-09T15:04:39;20.08;;;5.45;;
28483;SDS011;15704;48.834;8.736;2023-10-09T15:07:06;16.27;;;5.03;;
28483;SDS011;15704;48.834;8.736;2023-10-09T15:09:34;19.90;;;5.95;;
28483;SDS011;15704;48.834;8.736;2023-10-09T15:12:03;18.10;;;5.35;;
28483;SDS011;15704;48.834;8.736;2023-10-09T15:14:34;21.27;;;5.32;;
28483;SDS011;15704;48.834;8.736;2023-10-09T15:17:00;16.05;;;5.20;;
28483;SDS011;15704;48.834;8.736;2023-10-09T15:19:29;24.58;;;5.75;;
28483;SDS011;15704;48.834;8.736;2023-10-09T15:21:56;21.58;;;5.80;;
28483;SDS011;15704;48.834;8.736;2023-10-09T15:24:25;20.05;;;4.38;;
28483;SDS011;15704;48.834;8.736;2023-10-09T15:26:56;27.25;;;5.63;;
28483;SDS011;15704;48.834;8.736;2023-10-09T15:29:24;29.33;;;5.20;;
28483;SDS011;15704;48.834;8.736;2023-10-09T15:31:55;24.58;;;5.00;;
28483;SDS011;15704;48.834;8.736;2023-10-09T15:34:32;20.70;;;5.28;;
28483;SDS011;15704;48.834;8.736;2023-10-09T15:37:02;32.13;;;6.07;;
28483;SDS011;15704;48.834;8.736;2023-10-09T15:39:35;14.45;;;5.47;;
28483;SDS011;15704;48.834;8.736;2023-10-09T15:42:02;19.33;;;5.53;;
28483;SDS011;15704;48.834;8.736;2023-10-09T15:44:32;19.20;;;5.10;;
28483;SDS011;15704;48.834;8.736;2023-10-09T15:47:03;23.17;;;4.90;;
28483;SDS011;15704;48.834;8.736;2023-10-09T15:49:35;26.05;;;5.30;;